sensor_id;sensor_type;location;lat;lon;timestamp;P1;durP1;ratioP1;P2;durP2;ratioP2
19575;SDS011;41589;51.196;7.074;2022-11-20T00:04:08;2.20;;;2.10;;
19575;SDS011;41589;51.196;7.074;2022-11-20T00:09:10;3.60;;;3.40;;
19575;SDS011;41589;51.196;7.074;2022-11-20T00:14:10;1.80;;;1.80;;
19575;SDS011;41589;51.196;7.074;2022-11-20T00:19:12;2.07;;;1.97;;
19575;SDS011;41589;51.196;7.074;2022-11-20T00:24:12;1.90;;;1.90;;
19575;SDS011;41589;51.196;7.074;2022-11-20T00:29:13;1.70;;;1.70;;
19575;SDS011;41589;51.196;7.074;2022-11-20T00:34:13;1.70;;;1.70;;
19575;SDS011;41589;51.196;7.074;2022-11-20T00:39:14;2.10;;;2.00;;
19575;SDS011;41589;51.196;7.074;2022-11-20T00:44:15;1.90;;;1.90;;
19575;SDS011;41589;51.196;7.074;2022-11-20T00:49:15;2.20;;;2.10;;
19575;SDS011;41589;51.196;7.074;2022-11-20T00:54:19;2.17;;;2.07;;
19575;SDS011;41589;51.196;7.074;2022-11-20T00:59:20;2.20;;;2.10;;
19575;SDS011;41589;51.196;7.074;2022-11-20T01:04:20;2.20;;;2.10;;
19575;SDS011;41589;51.196;7.074;2022-11-20T01:09:21;2.50;;;2.40;;
19575;SDS011;41589;51.196;7.074;2022-11-20T01:14:22;1.90;;;1.90;;
19575;SDS011;41589;51.196;7.074;2022-11-20T01:19:22;2.17;;;2.07;;
19575;SDS011;41589;51.196;7.074;2022-11-20T01:24:23;2.10;;;2.00;;
19575;SDS011;41589;51.196;7.074;2022-11-20T01:29:24;2.30;;;2.20;;
19575;SDS011;41589;51.196;7.074;2022-11-20T01:34:25;2.30;;;2.20;;
19575;SDS011;41589;51.196;7.074;2022-11-20T01:39:26;5.33;;;5.03;;
19575;SDS011;41589;51.196;7.074;2022-11-20T01:49:46;2.80;;;2.70;;
19575;SDS011;41589;51.196;7.074;2022-11-20T01:55:13;2.53;;;2.43;;
19575;SDS011;41589;51.196;7.074;2022-11-20T02:00:18;2.50;;;2.40;;
19575;SDS011;41589;51.196;7.074;2022-11-20T02:05:22;2.90;;;2.80;;
19575;SDS011;41589;51.196;7.074;2022-11-20T02:10:27;2.80;;;2.70;;
19575;SDS011;41589;51.196;7.074;2022-11-20T02:15:29;2.60;;;2.50;;
19575;SDS011;41589;51.196;7.074;2022-11-20T02:20:29;2.50;;;2.40;;
19575;SDS011;41589;51.196;7.074;2022-11-20T02:25:30;2.50;;;2.40;;
19575;SDS011;41589;51.196;7.074;2022-11-20T02:30:32;2.77;;;2.67;;
19575;SDS011;41589;51.196;7.074;2022-11-20T02:40:33;2.90;;;2.80;;
19575;SDS011;41589;51.196;7.074;2022-11-20T02:45:34;2.60;;;2.50;;
19575;SDS011;41589;51.196;7.074;2022-11-20T02:50:38;2.30;;;2.20;;
19575;SDS011;41589;51.196;7.074;2022-11-20T02:55:39;2.60;;;2.50;;
19575;SDS011;41589;51.196;7.074;2022-11-20T03:00:43;2.57;;;2.47;;
19575;SDS011;41589;51.196;7.074;2022-11-20T03:05:49;2.30;;;2.20;;
19575;SDS011;41589;51.196;7.074;2022-11-20T03:10:49;2.20;;;2.10;;
19575;SDS011;41589;51.196;7.074;2022-11-20T03:15:50;2.50;;;2.40;;
19575;SDS011;41589;51.196;7.074;2022-11-20T03:20:56;2.43;;;2.33;;
19575;SDS011;41589;51.196;7.074;2022-11-20T03:31:31;2.40;;;2.30;;
19575;SDS011;41589;51.196;7.074;2022-11-20T03:36:37;2.30;;;2.20;;
19575;SDS011;41589;51.196;7.074;2022-11-20T03:41:39;2.50;;;2.40;;
19575;SDS011;41589;51.196;7.074;2022-11-20T03:46:41;2.63;;;2.53;;
19575;SDS011;41589;51.196;7.074;2022-11-20T03:51:41;2.30;;;2.20;;
19575;SDS011;41589;51.196;7.074;2022-11-20T03:56:42;2.53;;;2.43;;
19575;SDS011;41589;51.196;7.074;2022-11-20T04:01:42;2.43;;;2.33;;
19575;SDS011;41589;51.196;7.074;2022-11-20T04:06:43;2.90;;;2.80;;
19575;SDS011;41589;51.196;7.074;2022-11-20T04:11:43;2.70;;;2.60;;
19575;SDS011;41589;51.196;7.074;2022-11-20T04:16:44;2.60;;;2.50;;
19575;SDS011;41589;51.196;7.074;2022-11-20T04:21:44;2.50;;;2.40;;
19575;SDS011;41589;51.196;7.074;2022-11-20T04:26:45;2.20;;;2.10;;
19575;SDS011;41589;51.196;7.074;2022-11-20T04:31:46;2.47;;;2.37;;
19575;SDS011;41589;51.196;7.074;2022-11-20T04:36:46;2.53;;;2.43;;
19575;SDS011;41589;51.196;7.074;2022-11-20T04:41:47;2.50;;;2.40;;
19575;SDS011;41589;51.196;7.074;2022-11-20T04:46:47;2.40;;;2.30;;
19575;SDS011;41589;51.196;7.074;2022-11-20T04:51:47;2.30;;;2.20;;
19575;SDS011;41589;51.196;7.074;2022-11-20T04:56:48;2.40;;;2.30;;
19575;SDS011;41589;51.196;7.074;2022-11-20T05:01:49;2.30;;;2.20;;
19575;SDS011;41589;51.196;7.074;2022-11-20T05:06:49;2.40;;;2.30;;
19575;SDS011;41589;51.196;7.074;2022-11-20T05:11:50;2.57;;;2.47;;
19575;SDS011;41589;51.196;7.074;2022-11-20T05:16:50;2.70;;;2.60;;
19575;SDS011;41589;51.196;7.074;2022-11-20T05:21:51;2.50;;;2.40;;
19575;SDS011;41589;51.196;7.074;2022-11-20T05:26:51;3.13;;;3.03;;
19575;SDS011;41589;51.196;7.074;2022-11-20T05:31:52;2.60;;;2.50;;
19575;SDS011;41589;51.196;7.074;2022-11-20T05:36:52;2.40;;;2.30;;
19575;SDS011;41589;51.196;7.074;2022-11-20T05:41:52;2.37;;;2.27;;
19575;SDS011;41589;51.196;7.074;2022-11-20T05:47:13;2.30;;;2.20;;
19575;SDS011;41589;51.196;7.074;2022-11-20T05:52:13;1.97;;;1.90;;
19575;SDS011;41589;51.196;7.074;2022-11-20T05:57:13;1.93;;;1.90;;
19575;SDS011;41589;51.196;7.074;2022-11-20T06:02:14;2.40;;;2.30;;
19575;SDS011;41589;51.196;7.074;2022-11-20T06:07:15;1.97;;;1.90;;
19575;SDS011;41589;51.196;7.074;2022-11-20T06:12:15;2.10;;;2.00;;
19575;SDS011;41589;51.196;7.074;2022-11-20T06:17:17;2.70;;;2.60;;
19575;SDS011;41589;51.196;7.074;2022-11-20T06:22:17;2.97;;;2.87;;
19575;SDS011;41589;51.196;7.074;2022-11-20T06:27:17;2.30;;;2.20;;
19575;SDS011;41589;51.196;7.074;2022-11-20T06:32:18;2.63;;;2.53;;
19575;SDS011;41589;51.196;7.074;2022-11-20T06:37:18;2.87;;;2.77;;
19575;SDS011;41589;51.196;7.074;2022-11-20T06:42:18;2.50;;;2.40;;
19575;SDS011;41589;51.196;7.074;2022-11-20T06:47:19;2.27;;;2.10;;
19575;SDS011;41589;51.196;7.074;2022-11-20T06:52:19;2.60;;;2.50;;
19575;SDS011;41589;51.196;7.074;2022-11-20T06:57:19;2.50;;;2.40;;
19575;SDS011;41589;51.196;7.074;2022-11-20T07:02:20;2.43;;;2.33;;
19575;SDS011;41589;51.196;7.074;2022-11-20T07:07:20;2.57;;;2.47;;
19575;SDS011;41589;51.196;7.074;2022-11-20T07:12:20;2.60;;;2.50;;
19575;SDS011;41589;51.196;7.074;2022-11-20T07:17:21;2.30;;;2.20;;
19575;SDS011;41589;51.196;7.074;2022-11-20T07:22:21;2.23;;;2.13;;
19575;SDS011;41589;51.196;7.074;2022-11-20T07:27:22;2.20;;;2.10;;
19575;SDS011;41589;51.196;7.074;2022-11-20T07:32:22;2.20;;;2.10;;
19575;SDS011;41589;51.196;7.074;2022-11-20T07:37:23;2.33;;;2.23;;
19575;SDS011;41589;51.196;7.074;2022-11-20T07:42:23;2.63;;;2.53;;
19575;SDS011;41589;51.196;7.074;2022-11-20T07:47:24;2.60;;;2.50;;
19575;SDS011;41589;51.196;7.074;2022-11-20T07:52:25;2.20;;;2.10;;
19575;SDS011;41589;51.196;7.074;2022-11-20T07:57:25;2.23;;;2.13;;
19575;SDS011;41589;51.196;7.074;2022-11-20T08:02:25;2.17;;;2.07;;
19575;SDS011;41589;51.196;7.074;2022-11-20T08:07:26;2.30;;;2.20;;
19575;SDS011;41589;51.196;7.074;2022-11-20T08:12:26;2.40;;;2.30;;
19575;SDS011;41589;51.196;7.074;2022-11-20T08:17:45;2.17;;;2.07;;
19575;SDS011;41589;51.196;7.074;2022-11-20T08:22:45;2.20;;;2.10;;
19575;SDS011;41589;51.196;7.074;2022-11-20T08:27:46;2.30;;;2.20;;
19575;SDS011;41589;51.196;7.074;2022-11-20T08:32:46;2.27;;;2.17;;
19575;SDS011;41589;51.196;7.074;2022-11-20T08:37:46;2.10;;;2.00;;
19575;SDS011;41589;51.196;7.074;2022-11-20T08:42:47;1.90;;;1.90;;
19575;SDS011;41589;51.196;7.074;2022-11-20T08:47:48;2.10;;;2.00;;
19575;SDS011;41589;51.196;7.074;2022-11-20T08:52:49;2.10;;;2.00;;
19575;SDS011;41589;51.196;7.074;2022-11-20T08:57:49;2.27;;;2.17;;
19575;SDS011;41589;51.196;7.074;2022-11-20T09:02:50;1.97;;;1.90;;
19575;SDS011;41589;51.196;7.074;2022-11-20T09:07:50;1.87;;;1.87;;
19575;SDS011;41589;51.196;7.074;2022-11-20T09:12:51;1.80;;;1.80;;
19575;SDS011;41589;51.196;7.074;2022-11-20T09:17:59;1.80;;;1.80;;
19575;SDS011;41589;51.196;7.074;2022-11-20T09:23:01;1.90;;;1.90;;
19575;SDS011;41589;51.196;7.074;2022-11-20T09:28:01;2.47;;;1.87;;
19575;SDS011;41589;51.196;7.074;2022-11-20T09:33:03;1.80;;;1.80;;
19575;SDS011;41589;51.196;7.074;2022-11-20T09:38:07;1.90;;;1.90;;
19575;SDS011;41589;51.196;7.074;2022-11-20T09:43:12;2.40;;;2.30;;
19575;SDS011;41589;51.196;7.074;2022-11-20T09:53:46;1.70;;;1.70;;
19575;SDS011;41589;51.196;7.074;2022-11-20T09:58:57;1.70;;;1.70;;
19575;SDS011;41589;51.196;7.074;2022-11-20T10:04:18;1.60;;;1.60;;
19575;SDS011;41589;51.196;7.074;2022-11-20T10:30:19;3.23;;;3.13;;
19575;SDS011;41589;51.196;7.074;2022-11-20T10:35:23;1.80;;;1.80;;
19575;SDS011;41589;51.196;7.074;2022-11-20T10:40:41;2.60;;;2.50;;
19575;SDS011;41589;51.196;7.074;2022-11-20T10:57:10;2.67;;;2.57;;
19575;SDS011;41589;51.196;7.074;2022-11-20T11:01:51;2.20;;;2.10;;
19575;SDS011;41589;51.196;7.074;2022-11-20T11:06:51;2.77;;;2.67;;
19575;SDS011;41589;51.196;7.074;2022-11-20T11:11:59;2.20;;;2.10;;
19575;SDS011;41589;51.196;7.074;2022-11-20T11:16:59;2.53;;;2.43;;
19575;SDS011;41589;51.196;7.074;2022-11-20T11:22:00;2.30;;;2.20;;
19575;SDS011;41589;51.196;7.074;2022-11-20T11:27:11;2.50;;;2.40;;
19575;SDS011;41589;51.196;7.074;2022-11-20T11:32:20;2.50;;;2.40;;
19575;SDS011;41589;51.196;7.074;2022-11-20T11:37:21;2.40;;;2.30;;
19575;SDS011;41589;51.196;7.074;2022-11-20T11:42:28;2.40;;;2.30;;
19575;SDS011;41589;51.196;7.074;2022-11-20T11:47:30;2.53;;;2.43;;
19575;SDS011;41589;51.196;7.074;2022-11-20T11:52:33;2.30;;;2.20;;
19575;SDS011;41589;51.196;7.074;2022-11-20T11:57:59;2.20;;;2.10;;
19575;SDS011;41589;51.196;7.074;2022-11-20T12:03:14;2.20;;;2.10;;
19575;SDS011;41589;51.196;7.074;2022-11-20T12:08:41;2.30;;;2.20;;
19575;SDS011;41589;51.196;7.074;2022-11-20T12:13:55;2.60;;;2.50;;
19575;SDS011;41589;51.196;7.074;2022-11-20T12:19:04;2.93;;;2.83;;
19575;SDS011;41589;51.196;7.074;2022-11-20T12:24:29;3.00;;;2.90;;
19575;SDS011;41589;51.196;7.074;2022-11-20T12:29:58;3.40;;;3.20;;
19575;SDS011;41589;51.196;7.074;2022-11-20T12:46:45;2.90;;;2.80;;
19575;SDS011;41589;51.196;7.074;2022-11-20T12:52:08;3.47;;;3.37;;
19575;SDS011;41589;51.196;7.074;2022-11-20T13:08:20;2.77;;;2.67;;
19575;SDS011;41589;51.196;7.074;2022-11-20T13:18:46;2.90;;;2.80;;
19575;SDS011;41589;51.196;7.074;2022-11-20T13:23:47;2.80;;;2.60;;
19575;SDS011;41589;51.196;7.074;2022-11-20T13:34:24;4.00;;;3.80;;
19575;SDS011;41589;51.196;7.074;2022-11-20T13:39:27;4.30;;;4.10;;
19575;SDS011;41589;51.196;7.074;2022-11-20T13:44:34;3.63;;;3.50;;
19575;SDS011;41589;51.196;7.074;2022-11-20T13:49:39;3.70;;;3.50;;
19575;SDS011;41589;51.196;7.074;2022-11-20T13:55:00;4.33;;;4.13;;
19575;SDS011;41589;51.196;7.074;2022-11-20T14:00:12;3.20;;;3.10;;
19575;SDS011;41589;51.196;7.074;2022-11-20T14:05:21;4.57;;;4.37;;
19575;SDS011;41589;51.196;7.074;2022-11-20T14:15:31;3.10;;;3.00;;
19575;SDS011;41589;51.196;7.074;2022-11-20T14:20:36;4.37;;;4.17;;
19575;SDS011;41589;51.196;7.074;2022-11-20T14:25:42;3.90;;;3.70;;
19575;SDS011;41589;51.196;7.074;2022-11-20T14:30:46;3.67;;;3.47;;
19575;SDS011;41589;51.196;7.074;2022-11-20T14:35:54;3.70;;;3.50;;
19575;SDS011;41589;51.196;7.074;2022-11-20T14:41:07;3.30;;;3.10;;
19575;SDS011;41589;51.196;7.074;2022-11-20T14:46:19;3.37;;;3.20;;
19575;SDS011;41589;51.196;7.074;2022-11-20T14:51:29;3.60;;;3.50;;
19575;SDS011;41589;51.196;7.074;2022-11-20T14:56:54;3.37;;;3.17;;
19575;SDS011;41589;51.196;7.074;2022-11-20T15:07:08;3.10;;;2.90;;
19575;SDS011;41589;51.196;7.074;2022-11-20T15:12:15;3.07;;;2.97;;
19575;SDS011;41589;51.196;7.074;2022-11-20T15:17:18;3.00;;;2.90;;
19575;SDS011;41589;51.196;7.074;2022-11-20T15:22:19;2.77;;;2.67;;
19575;SDS011;41589;51.196;7.074;2022-11-20T15:27:19;2.90;;;2.80;;
19575;SDS011;41589;51.196;7.074;2022-11-20T15:32:20;3.00;;;2.90;;
19575;SDS011;41589;51.196;7.074;2022-11-20T15:37:20;3.10;;;3.00;;
19575;SDS011;41589;51.196;7.074;2022-11-20T15:42:23;2.77;;;2.67;;
19575;SDS011;41589;51.196;7.074;2022-11-20T15:47:34;2.80;;;2.70;;
19575;SDS011;41589;51.196;7.074;2022-11-20T15:52:35;3.47;;;3.30;;
19575;SDS011;41589;51.196;7.074;2022-11-20T15:57:36;2.80;;;2.70;;
19575;SDS011;41589;51.196;7.074;2022-11-20T16:02:37;3.30;;;3.20;;
19575;SDS011;41589;51.196;7.074;2022-11-20T16:07:38;3.10;;;3.00;;
19575;SDS011;41589;51.196;7.074;2022-11-20T16:12:38;3.30;;;3.20;;
19575;SDS011;41589;51.196;7.074;2022-11-20T16:17:58;2.90;;;2.80;;
19575;SDS011;41589;51.196;7.074;2022-11-20T16:22:58;2.90;;;2.80;;
19575;SDS011;41589;51.196;7.074;2022-11-20T16:27:59;2.60;;;2.50;;
19575;SDS011;41589;51.196;7.074;2022-11-20T16:33:02;2.57;;;2.47;;
19575;SDS011;41589;51.196;7.074;2022-11-20T16:38:07;2.73;;;2.63;;
19575;SDS011;41589;51.196;7.074;2022-11-20T16:43:11;2.47;;;2.33;;
19575;SDS011;41589;51.196;7.074;2022-11-20T16:48:16;2.27;;;2.17;;
19575;SDS011;41589;51.196;7.074;2022-11-20T16:53:21;2.50;;;2.40;;
19575;SDS011;41589;51.196;7.074;2022-11-20T16:58:22;2.20;;;2.10;;
19575;SDS011;41589;51.196;7.074;2022-11-20T17:03:23;2.33;;;2.23;;
19575;SDS011;41589;51.196;7.074;2022-11-20T17:08:27;2.10;;;2.00;;
19575;SDS011;41589;51.196;7.074;2022-11-20T17:13:29;2.70;;;2.60;;
19575;SDS011;41589;51.196;7.074;2022-11-20T17:18:30;2.43;;;2.33;;
19575;SDS011;41589;51.196;7.074;2022-11-20T17:23:32;2.47;;;2.37;;
19575;SDS011;41589;51.196;7.074;2022-11-20T17:28:37;1.90;;;1.80;;
19575;SDS011;41589;51.196;7.074;2022-11-20T17:33:38;2.00;;;1.90;;
19575;SDS011;41589;51.196;7.074;2022-11-20T17:38:40;2.17;;;2.07;;
19575;SDS011;41589;51.196;7.074;2022-11-20T17:43:41;1.80;;;1.70;;
19575;SDS011;41589;51.196;7.074;2022-11-20T17:48:46;2.93;;;2.80;;
19575;SDS011;41589;51.196;7.074;2022-11-20T17:53:49;2.00;;;1.90;;
19575;SDS011;41589;51.196;7.074;2022-11-20T17:58:52;1.50;;;1.40;;
19575;SDS011;41589;51.196;7.074;2022-11-20T18:03:52;1.13;;;1.13;;
19575;SDS011;41589;51.196;7.074;2022-11-20T18:08:59;1.33;;;1.33;;
19575;SDS011;41589;51.196;7.074;2022-11-20T18:14:03;1.20;;;1.20;;
19575;SDS011;41589;51.196;7.074;2022-11-20T18:19:24;1.37;;;1.37;;
19575;SDS011;41589;51.196;7.074;2022-11-20T18:24:30;1.30;;;1.30;;
19575;SDS011;41589;51.196;7.074;2022-11-20T18:29:32;1.97;;;1.60;;
19575;SDS011;41589;51.196;7.074;2022-11-20T18:34:33;1.40;;;1.40;;
19575;SDS011;41589;51.196;7.074;2022-11-20T18:39:39;1.20;;;1.20;;
19575;SDS011;41589;51.196;7.074;2022-11-20T18:44:49;1.50;;;1.50;;
19575;SDS011;41589;51.196;7.074;2022-11-20T18:49:53;1.23;;;1.23;;
19575;SDS011;41589;51.196;7.074;2022-11-20T18:54:56;1.00;;;1.00;;
19575;SDS011;41589;51.196;7.074;2022-11-20T18:59:57;1.13;;;1.13;;
19575;SDS011;41589;51.196;7.074;2022-11-20T19:05:05;1.10;;;1.10;;
19575;SDS011;41589;51.196;7.074;2022-11-20T19:10:11;1.27;;;1.17;;
19575;SDS011;41589;51.196;7.074;2022-11-20T19:15:12;1.50;;;1.23;;
19575;SDS011;41589;51.196;7.074;2022-11-20T19:20:13;1.40;;;1.40;;
19575;SDS011;41589;51.196;7.074;2022-11-20T19:25:18;1.57;;;1.47;;
19575;SDS011;41589;51.196;7.074;2022-11-20T19:30:22;1.40;;;1.30;;
19575;SDS011;41589;51.196;7.074;2022-11-20T19:35:25;1.63;;;1.53;;
19575;SDS011;41589;51.196;7.074;2022-11-20T19:40:26;1.53;;;1.43;;
19575;SDS011;41589;51.196;7.074;2022-11-20T19:45:26;1.87;;;1.37;;
19575;SDS011;41589;51.196;7.074;2022-11-20T19:50:30;1.77;;;1.57;;
19575;SDS011;41589;51.196;7.074;2022-11-20T19:55:31;1.77;;;1.67;;
19575;SDS011;41589;51.196;7.074;2022-11-20T20:00:31;1.50;;;1.40;;
19575;SDS011;41589;51.196;7.074;2022-11-20T20:05:32;1.70;;;1.60;;
19575;SDS011;41589;51.196;7.074;2022-11-20T20:10:33;2.17;;;1.73;;
19575;SDS011;41589;51.196;7.074;2022-11-20T20:15:33;2.10;;;1.90;;
19575;SDS011;41589;51.196;7.074;2022-11-20T20:20:39;0.60;;;0.60;;
19575;SDS011;41589;51.196;7.074;2022-11-20T20:25:40;0.70;;;0.70;;
19575;SDS011;41589;51.196;7.074;2022-11-20T20:30:41;0.70;;;0.70;;
19575;SDS011;41589;51.196;7.074;2022-11-20T20:35:41;0.60;;;0.60;;
19575;SDS011;41589;51.196;7.074;2022-11-20T20:40:45;0.63;;;0.63;;
19575;SDS011;41589;51.196;7.074;2022-11-20T20:45:48;0.70;;;0.70;;
19575;SDS011;41589;51.196;7.074;2022-11-20T20:50:56;0.70;;;0.70;;
19575;SDS011;41589;51.196;7.074;2022-11-20T20:55:59;0.60;;;0.60;;
19575;SDS011;41589;51.196;7.074;2022-11-20T21:01:02;0.60;;;0.60;;
19575;SDS011;41589;51.196;7.074;2022-11-20T21:06:07;0.63;;;0.63;;
19575;SDS011;41589;51.196;7.074;2022-11-20T21:11:10;0.70;;;0.70;;
19575;SDS011;41589;51.196;7.074;2022-11-20T21:16:18;0.70;;;0.70;;
19575;SDS011;41589;51.196;7.074;2022-11-20T21:21:31;0.60;;;0.60;;
19575;SDS011;41589;51.196;7.074;2022-11-20T21:26:53;0.60;;;0.60;;
19575;SDS011;41589;51.196;7.074;2022-11-20T21:31:55;0.80;;;0.80;;
19575;SDS011;41589;51.196;7.074;2022-11-20T21:36:57;0.60;;;0.60;;
19575;SDS011;41589;51.196;7.074;2022-11-20T21:42:00;0.60;;;0.60;;
19575;SDS011;41589;51.196;7.074;2022-11-20T21:47:00;0.70;;;0.70;;
19575;SDS011;41589;51.196;7.074;2022-11-20T21:52:04;0.60;;;0.60;;
19575;SDS011;41589;51.196;7.074;2022-11-20T21:57:04;0.60;;;0.60;;
19575;SDS011;41589;51.196;7.074;2022-11-20T22:02:05;0.70;;;0.70;;
19575;SDS011;41589;51.196;7.074;2022-11-20T22:07:06;0.60;;;0.60;;
19575;SDS011;41589;51.196;7.074;2022-11-20T22:12:07;0.70;;;0.70;;
19575;SDS011;41589;51.196;7.074;2022-11-20T22:17:10;0.70;;;0.70;;
19575;SDS011;41589;51.196;7.074;2022-11-20T22:22:12;0.60;;;0.60;;
19575;SDS011;41589;51.196;7.074;2022-11-20T22:27:13;0.70;;;0.70;;
19575;SDS011;41589;51.196;7.074;2022-11-20T22:32:14;0.70;;;0.70;;
19575;SDS011;41589;51.196;7.074;2022-11-20T22:37:16;0.70;;;0.70;;
19575;SDS011;41589;51.196;7.074;2022-11-20T22:42:20;0.70;;;0.70;;
19575;SDS011;41589;51.196;7.074;2022-11-20T22:47:23;0.70;;;0.70;;
19575;SDS011;41589;51.196;7.074;2022-11-20T22:52:28;0.70;;;0.70;;
19575;SDS011;41589;51.196;7.074;2022-11-20T22:57:30;0.70;;;0.70;;
19575;SDS011;41589;51.196;7.074;2022-11-20T23:02:30;0.80;;;0.80;;
19575;SDS011;41589;51.196;7.074;2022-11-20T23:07:33;0.70;;;0.70;;
19575;SDS011;41589;51.196;7.074;2022-11-20T23:12:34;0.70;;;0.70;;
19575;SDS011;41589;51.196;7.074;2022-11-20T23:17:35;0.60;;;0.60;;
19575;SDS011;41589;51.196;7.074;2022-11-20T23:22:38;0.70;;;0.70;;
19575;SDS011;41589;51.196;7.074;2022-11-20T23:27:38;0.70;;;0.70;;
19575;SDS011;41589;51.196;7.074;2022-11-20T23:32:38;0.70;;;0.70;;
19575;SDS011;41589;51.196;7.074;2022-11-20T23:37:44;0.70;;;0.70;;
19575;SDS011;41589;51.196;7.074;2022-11-20T23:42:44;0.80;;;0.80;;
19575;SDS011;41589;51.196;7.074;2022-11-20T23:48:04;0.70;;;0.70;;
19575;SDS011;41589;51.196;7.074;2022-11-20T23:53:04;0.70;;;0.70;;
19575;SDS011;41589;51.196;7.074;2022-11-20T23:58:05;0.70;;;0.70;;
